Time;durP1;ratioP1;P1;durP2;ratioP2;P2;SDS_P1;SDS_P2;PMS_P1;PMS_P2;Temp;Humidity;BMP_temperature;BMP_pressure;BME280_temperature;BME280_humidity;BME280_pressure;Samples;Min_cycle;Max_cycle;Signal;HPM_P1;HPM_P2
2023/12/06 00:01:25;;;;;;;109.40;88.30;;;;;;;;;;5060196;28;20139;-76
2023/12/06 00:03:50;;;;;;;101.75;80.85;;;;;;;;;;5051975;28;20355;-75
2023/12/06 00:06:16;;;;;;;97.15;72.18;;;;;;;;;;5059771;28;20055;-75
2023/12/06 00:08:41;;;;;;;107.10;80.03;;;;;;;;;;5059433;28;20025;-78
2023/12/06 00:11:06;;;;;;;74.10;58.15;;;;;;;;;;5051010;28;20339;-75
2023/12/06 00:13:32;;;;;;;80.35;61.58;;;;;;;;;;5060557;28;20024;-75
2023/12/06 00:15:57;;;;;;;79.25;61.55;;;;;;;;;;5050819;28;20017;-75
2023/12/06 00:18:22;;;;;;;105.57;80.47;;;;;;;;;;5057506;28;20032;-75
2023/12/06 00:20:48;;;;;;;102.68;77.93;;;;;;;;;;5057540;28;20459;-75
2023/12/06 00:23:13;;;;;;;66.47;51.40;;;;;;;;;;5050408;28;20409;-75
2023/12/06 00:25:38;;;;;;;51.47;40.25;;;;;;;;;;5059526;28;21118;-76
2023/12/06 00:28:04;;;;;;;66.85;48.28;;;;;;;;;;5061480;28;20039;-77
2023/12/06 00:30:29;;;;;;;55.55;40.65;;;;;;;;;;5055839;28;20039;-76
2023/12/06 00:32:54;;;;;;;47.35;36.83;;;;;;;;;;5049037;28;20021;-76
2023/12/06 00:35:20;;;;;;;66.50;53.67;;;;;;;;;;5055057;28;20024;-75
2023/12/06 00:37:45;;;;;;;65.60;52.83;;;;;;;;;;5063443;28;20029;-76
2023/12/06 00:40:11;;;;;;;68.80;54.88;;;;;;;;;;5063016;28;20527;-75
2023/12/06 00:42:36;;;;;;;58.47;46.10;;;;;;;;;;5065192;28;20115;-75
2023/12/06 00:45:02;;;;;;;48.63;37.05;;;;;;;;;;5063477;28;20028;-75
2023/12/06 00:47:28;;;;;;;40.35;31.98;;;;;;;;;;5064195;28;20124;-74
2023/12/06 00:49:53;;;;;;;36.13;28.83;;;;;;;;;;5064364;28;20034;-76
2023/12/06 00:52:18;;;;;;;32.80;28.33;;;;;;;;;;5043325;28;20713;-75
2023/12/06 00:54:44;;;;;;;34.65;27.20;;;;;;;;;;5052627;28;20032;-76
2023/12/06 00:57:09;;;;;;;34.50;27.20;;;;;;;;;;5048794;28;20115;-74
2023/12/06 00:59:34;;;;;;;39.50;31.33;;;;;;;;;;5049130;28;20066;-74
2023/12/06 01:02:00;;;;;;;37.30;30.10;;;;;;;;;;5059889;28;20029;-76
2023/12/06 01:04:25;;;;;;;33.83;29.00;;;;;;;;;;5062523;28;20083;-75
2023/12/06 01:06:50;;;;;;;36.47;27.50;;;;;;;;;;5063276;28;20048;-74
2023/12/06 01:09:16;;;;;;;33.78;26.70;;;;;;;;;;5052307;28;20028;-76
2023/12/06 01:11:41;;;;;;;38.63;28.77;;;;;;;;;;5063824;28;20050;-74
2023/12/06 01:14:07;;;;;;;36.15;28.60;;;;;;;;;;5052731;28;20178;-74
2023/12/06 01:16:33;;;;;;;32.00;26.58;;;;;;;;;;5049867;28;20098;-75
2023/12/06 01:18:58;;;;;;;38.75;30.63;;;;;;;;;;5049899;28;20032;-75
2023/12/06 01:21:23;;;;;;;36.53;29.70;;;;;;;;;;5054233;28;20032;-76
2023/12/06 01:23:49;;;;;;;34.10;27.13;;;;;;;;;;5064208;28;20036;-76
2023/12/06 01:26:14;;;;;;;33.47;28.77;;;;;;;;;;5064184;28;20032;-76
2023/12/06 01:28:39;;;;;;;40.90;31.50;;;;;;;;;;5064163;28;20103;-75
2023/12/06 01:31:05;;;;;;;39.63;31.80;;;;;;;;;;5064365;28;20028;-75
2023/12/06 01:33:30;;;;;;;37.85;29.80;;;;;;;;;;5064331;28;20024;-75
2023/12/06 01:35:55;;;;;;;39.17;31.90;;;;;;;;;;5063873;28;20411;-75
2023/12/06 01:38:21;;;;;;;40.63;32.13;;;;;;;;;;5050605;28;20040;-76
2023/12/06 01:40:46;;;;;;;40.15;31.08;;;;;;;;;;5055960;28;20029;-76
2023/12/06 01:43:11;;;;;;;40.75;32.33;;;;;;;;;;5064026;28;20028;-76
2023/12/06 01:45:37;;;;;;;39.88;31.00;;;;;;;;;;5057310;28;20027;-76
2023/12/06 01:48:03;;;;;;;46.63;35.65;;;;;;;;;;5047530;28;20119;-75
2023/12/06 01:50:28;;;;;;;49.33;35.22;;;;;;;;;;5062995;28;20082;-74
2023/12/06 01:52:56;;;;;;;44.22;32.28;;;;;;;;;;5063155;28;20095;-75
2023/12/06 01:55:21;;;;;;;40.22;30.70;;;;;;;;;;5063698;28;20043;-74
2023/12/06 01:57:47;;;;;;;48.72;36.25;;;;;;;;;;5050863;28;20028;-75
2023/12/06 02:00:12;;;;;;;44.25;33.53;;;;;;;;;;5048971;28;20116;-75
2023/12/06 02:02:38;;;;;;;37.63;29.67;;;;;;;;;;5061371;28;20052;-75
2023/12/06 02:05:04;;;;;;;37.53;29.08;;;;;;;;;;5061243;28;20033;-74
2023/12/06 02:07:29;;;;;;;38.55;29.77;;;;;;;;;;5062230;28;20056;-75
2023/12/06 02:09:55;;;;;;;35.55;29.48;;;;;;;;;;5059911;28;20118;-76
2023/12/06 02:12:20;;;;;;;37.80;28.67;;;;;;;;;;5062271;28;20103;-75
2023/12/06 02:14:46;;;;;;;34.80;28.77;;;;;;;;;;5062810;28;20107;-77
2023/12/06 02:17:12;;;;;;;40.38;30.85;;;;;;;;;;5062495;28;20355;-75
2023/12/06 02:19:37;;;;;;;42.08;32.00;;;;;;;;;;5054861;28;20024;-75
2023/12/06 02:22:03;;;;;;;38.25;29.05;;;;;;;;;;5058488;28;20025;-76
2023/12/06 02:24:29;;;;;;;38.50;29.83;;;;;;;;;;5062575;28;20471;-75
2023/12/06 02:26:54;;;;;;;38.78;31.60;;;;;;;;;;5062355;28;20032;-75
2023/12/06 02:29:20;;;;;;;40.03;30.00;;;;;;;;;;5060885;28;20435;-74
2023/12/06 02:31:45;;;;;;;38.20;30.73;;;;;;;;;;5061523;28;20028;-75
2023/12/06 02:34:12;;;;;;;49.55;35.30;;;;;;;;;;5061616;28;20108;-75
2023/12/06 02:36:38;;;;;;;41.05;31.60;;;;;;;;;;5061494;28;20024;-75
2023/12/06 02:39:04;;;;;;;40.60;31.10;;;;;;;;;;5062183;28;20028;-75
2023/12/06 02:41:31;;;;;;;36.70;28.60;;;;;;;;;;5062134;28;20021;-75
2023/12/06 02:43:56;;;;;;;44.15;33.20;;;;;;;;;;5059841;28;20039;-75
2023/12/06 02:46:22;;;;;;;42.65;32.10;;;;;;;;;;5061217;28;20323;-75
2023/12/06 02:48:47;;;;;;;42.40;32.33;;;;;;;;;;5062074;28;20120;-77
2023/12/06 02:51:13;;;;;;;44.42;33.35;;;;;;;;;;5062398;28;20368;-77
2023/12/06 02:53:38;;;;;;;43.80;33.50;;;;;;;;;;5060172;28;20842;-75
2023/12/06 02:56:04;;;;;;;42.25;32.05;;;;;;;;;;5051423;28;20025;-75
2023/12/06 02:58:29;;;;;;;44.05;33.60;;;;;;;;;;5061440;28;20040;-75
2023/12/06 03:00:55;;;;;;;50.50;33.05;;;;;;;;;;5060726;28;20024;-77
2023/12/06 03:03:20;;;;;;;39.03;29.48;;;;;;;;;;5050303;28;20086;-75
2023/12/06 03:05:45;;;;;;;42.08;32.42;;;;;;;;;;5061378;28;20390;-75
2023/12/06 03:08:14;;;;;;;40.50;31.33;;;;;;;;;;5061064;28;20398;-75
2023/12/06 03:10:39;;;;;;;39.35;28.65;;;;;;;;;;5061820;28;20028;-74
2023/12/06 03:13:04;;;;;;;37.85;28.75;;;;;;;;;;5061626;28;20097;-76
2023/12/06 03:15:30;;;;;;;33.75;27.67;;;;;;;;;;5048190;28;20043;-76
2023/12/06 03:17:55;;;;;;;36.83;28.50;;;;;;;;;;5062109;28;20033;-76
2023/12/06 03:20:21;;;;;;;34.65;27.98;;;;;;;;;;5048687;28;20462;-76
2023/12/06 03:22:46;;;;;;;36.78;28.30;;;;;;;;;;5062009;28;20020;-76
2023/12/06 03:25:12;;;;;;;34.60;27.15;;;;;;;;;;5062225;28;20028;-75
2023/12/06 03:27:37;;;;;;;36.53;26.63;;;;;;;;;;5049176;28;20078;-74
2023/12/06 03:30:03;;;;;;;36.15;27.13;;;;;;;;;;5061650;28;20028;-76
2023/12/06 03:32:28;;;;;;;33.92;25.80;;;;;;;;;;5059824;28;20028;-74
2023/12/06 03:34:53;;;;;;;34.08;25.33;;;;;;;;;;5061780;28;20340;-76
2023/12/06 03:37:19;;;;;;;36.55;27.88;;;;;;;;;;5055298;28;20372;-75
2023/12/06 03:39:44;;;;;;;39.20;30.73;;;;;;;;;;5055407;28;20185;-76
2023/12/06 03:42:09;;;;;;;37.08;28.05;;;;;;;;;;5051484;28;20048;-76
2023/12/06 03:44:35;;;;;;;37.08;27.88;;;;;;;;;;5059494;28;20024;-76
2023/12/06 03:47:00;;;;;;;37.63;29.05;;;;;;;;;;5060827;28;20024;-75
2023/12/06 03:49:25;;;;;;;36.70;27.38;;;;;;;;;;5061647;28;20020;-75
2023/12/06 03:51:51;;;;;;;36.85;27.33;;;;;;;;;;5051891;28;20028;-75
2023/12/06 03:54:16;;;;;;;49.53;35.70;;;;;;;;;;5058749;28;20040;-75
2023/12/06 03:56:42;;;;;;;46.03;33.08;;;;;;;;;;5047663;28;20097;-75
2023/12/06 03:59:07;;;;;;;36.08;28.55;;;;;;;;;;5061873;28;20032;-76
2023/12/06 04:01:32;;;;;;;43.22;31.80;;;;;;;;;;5048630;28;20055;-75
2023/12/06 04:03:58;;;;;;;37.20;27.52;;;;;;;;;;5061182;28;20107;-76
2023/12/06 04:06:23;;;;;;;43.50;33.95;;;;;;;;;;5060121;28;20057;-75
2023/12/06 04:08:48;;;;;;;55.72;41.47;;;;;;;;;;5059892;28;20036;-75
2023/12/06 04:11:14;;;;;;;46.25;35.92;;;;;;;;;;5060383;28;20103;-75
2023/12/06 04:13:39;;;;;;;43.58;30.10;;;;;;;;;;5061511;28;20344;-75
2023/12/06 04:16:05;;;;;;;38.10;29.58;;;;;;;;;;5061220;28;20135;-75
2023/12/06 04:18:30;;;;;;;38.25;30.08;;;;;;;;;;5060173;28;20120;-75
2023/12/06 04:20:55;;;;;;;39.75;29.75;;;;;;;;;;5043823;28;20024;-74
2023/12/06 04:23:21;;;;;;;40.30;29.35;;;;;;;;;;5053894;28;20063;-76
2023/12/06 04:25:47;;;;;;;36.65;27.60;;;;;;;;;;5060814;28;20032;-76
2023/12/06 04:28:12;;;;;;;40.92;29.88;;;;;;;;;;5060638;28;20062;-76
2023/12/06 04:30:37;;;;;;;39.08;29.23;;;;;;;;;;5061402;28;20028;-76
2023/12/06 04:33:03;;;;;;;38.97;29.27;;;;;;;;;;5048601;28;20079;-75
2023/12/06 04:35:28;;;;;;;38.38;27.73;;;;;;;;;;5060564;28;20025;-77
2023/12/06 04:37:54;;;;;;;39.65;28.83;;;;;;;;;;5061596;28;20083;-75
2023/12/06 04:40:19;;;;;;;40.20;32.70;;;;;;;;;;5061579;28;20466;-74
2023/12/06 04:42:45;;;;;;;33.53;27.60;;;;;;;;;;5060780;28;20025;-76
2023/12/06 04:45:10;;;;;;;36.53;27.08;;;;;;;;;;5042768;28;20060;-75
2023/12/06 04:47:35;;;;;;;34.83;25.73;;;;;;;;;;5060195;28;20119;-76
2023/12/06 04:50:01;;;;;;;32.70;26.80;;;;;;;;;;5050802;28;20083;-76
2023/12/06 04:52:26;;;;;;;35.72;26.70;;;;;;;;;;5045047;28;20024;-74
2023/12/06 04:54:52;;;;;;;34.10;26.20;;;;;;;;;;5046055;28;20029;-75
2023/12/06 04:57:17;;;;;;;36.83;28.25;;;;;;;;;;5039888;28;20070;-75
2023/12/06 04:59:43;;;;;;;36.90;27.88;;;;;;;;;;5038451;28;20029;-75
2023/12/06 05:02:08;;;;;;;33.70;27.77;;;;;;;;;;5046298;28;20029;-75
2023/12/06 05:04:33;;;;;;;34.50;24.90;;;;;;;;;;5046042;28;20017;-74
2023/12/06 05:06:59;;;;;;;32.90;25.33;;;;;;;;;;5045479;28;20100;-76
2023/12/06 05:09:24;;;;;;;33.22;24.85;;;;;;;;;;5058220;28;20119;-75
2023/12/06 05:11:49;;;;;;;34.72;26.77;;;;;;;;;;5044331;28;20119;-75
2023/12/06 05:14:14;;;;;;;31.75;24.60;;;;;;;;;;5060324;28;20108;-75
2023/12/06 05:16:40;;;;;;;64.72;52.63;;;;;;;;;;5063774;28;20112;-75
2023/12/06 05:19:06;;;;;;;59.15;43.30;;;;;;;;;;5060490;28;20113;-75
2023/12/06 05:21:31;;;;;;;47.70;37.10;;;;;;;;;;5061142;28;20020;-74
2023/12/06 05:23:57;;;;;;;74.82;57.47;;;;;;;;;;5063324;28;20032;-75
2023/12/06 05:26:24;;;;;;;324.95;235.00;;;;;;;;;;5054649;28;20020;-75
2023/12/06 05:28:49;;;;;;;104.30;73.47;;;;;;;;;;5059858;28;20036;-75
2023/12/06 05:31:15;;;;;;;51.05;40.58;;;;;;;;;;5059315;28;20101;-74
2023/12/06 05:33:40;;;;;;;41.28;33.13;;;;;;;;;;5042276;28;20067;-75
2023/12/06 05:36:07;;;;;;;207.13;152.38;;;;;;;;;;5063276;28;20025;-74
2023/12/06 05:38:32;;;;;;;60.15;47.75;;;;;;;;;;5062712;28;20036;-74
2023/12/06 05:40:57;;;;;;;45.72;35.13;;;;;;;;;;5062656;28;20029;-74
2023/12/06 05:43:23;;;;;;;36.08;29.50;;;;;;;;;;5050752;28;20028;-74
2023/12/06 05:45:48;;;;;;;37.15;29.02;;;;;;;;;;5063290;28;20127;-75
2023/12/06 05:48:13;;;;;;;48.85;43.30;;;;;;;;;;5062779;28;20116;-75
2023/12/06 05:50:39;;;;;;;49.00;40.70;;;;;;;;;;5061732;28;20032;-76
2023/12/06 05:53:05;;;;;;;34.22;28.35;;;;;;;;;;5060708;28;20025;-75
2023/12/06 05:55:30;;;;;;;41.83;33.88;;;;;;;;;;5062600;28;20025;-77
2023/12/06 05:57:55;;;;;;;56.75;49.63;;;;;;;;;;5060427;28;20063;-77
2023/12/06 06:00:21;;;;;;;36.15;29.63;;;;;;;;;;5061500;28;20074;-77
2023/12/06 06:02:46;;;;;;;37.67;31.45;;;;;;;;;;5061930;28;20028;-77
2023/12/06 06:05:12;;;;;;;126.80;100.30;;;;;;;;;;5062843;28;20044;-76
2023/12/06 06:07:37;;;;;;;42.88;34.72;;;;;;;;;;5062239;28;20127;-75
2023/12/06 06:10:03;;;;;;;65.60;49.13;;;;;;;;;;5063765;28;20111;-76
2023/12/06 06:12:28;;;;;;;68.35;55.17;;;;;;;;;;5063842;28;20032;-75
2023/12/06 06:14:54;;;;;;;58.42;48.00;;;;;;;;;;5062334;28;20028;-76
2023/12/06 06:17:19;;;;;;;61.42;47.47;;;;;;;;;;5062772;28;20032;-77
2023/12/06 06:19:44;;;;;;;85.22;64.88;;;;;;;;;;5063428;28;20029;-77
2023/12/06 06:22:10;;;;;;;45.95;34.55;;;;;;;;;;5062985;28;20038;-77
2023/12/06 06:24:35;;;;;;;50.67;39.30;;;;;;;;;;5048775;28;20060;-75
2023/12/06 06:27:02;;;;;;;51.00;41.17;;;;;;;;;;5057102;28;20050;-76
2023/12/06 06:29:27;;;;;;;43.42;34.60;;;;;;;;;;5054180;28;20028;-76
2023/12/06 06:31:53;;;;;;;41.40;33.35;;;;;;;;;;5060577;28;20051;-75
2023/12/06 06:34:18;;;;;;;36.53;29.77;;;;;;;;;;5061814;28;20024;-78
2023/12/06 06:36:44;;;;;;;33.22;27.30;;;;;;;;;;5062135;28;20032;-77
2023/12/06 06:39:11;;;;;;;33.60;27.27;;;;;;;;;;5062934;28;20020;-77
2023/12/06 06:41:37;;;;;;;37.50;29.75;;;;;;;;;;5060167;28;20086;-76
2023/12/06 06:44:02;;;;;;;64.45;51.05;;;;;;;;;;5048959;28;20029;-77
2023/12/06 06:46:27;;;;;;;60.40;46.28;;;;;;;;;;5062068;28;20039;-78
2023/12/06 06:48:53;;;;;;;34.75;28.70;;;;;;;;;;5061695;28;20363;-78
2023/12/06 06:51:18;;;;;;;44.33;34.70;;;;;;;;;;5062535;28;20447;-77
2023/12/06 06:53:43;;;;;;;40.05;30.67;;;;;;;;;;5060362;28;20398;-77
2023/12/06 06:56:09;;;;;;;48.08;38.92;;;;;;;;;;5062261;28;21154;-76
2023/12/06 06:58:34;;;;;;;123.03;90.70;;;;;;;;;;5061429;28;20071;-76
2023/12/06 07:00:59;;;;;;;85.95;62.80;;;;;;;;;;5060602;28;20078;-76
2023/12/06 07:03:25;;;;;;;60.88;45.38;;;;;;;;;;5051990;28;20025;-77
2023/12/06 07:05:50;;;;;;;70.63;50.42;;;;;;;;;;5062375;28;20027;-77
2023/12/06 07:08:15;;;;;;;55.55;40.88;;;;;;;;;;5060066;28;20103;-77
2023/12/06 07:10:45;;;;;;;171.73;115.95;;;;;;;;;;5061003;28;20028;-78
2023/12/06 07:13:10;;;;;;;139.73;98.70;;;;;;;;;;5054759;28;20025;-77
2023/12/06 07:15:35;;;;;;;47.20;36.67;;;;;;;;;;5056636;28;20439;-77
2023/12/06 07:18:01;;;;;;;60.85;42.72;;;;;;;;;;5060950;28;20408;-76
2023/12/06 07:20:26;;;;;;;71.30;50.88;;;;;;;;;;5061960;28;20742;-75
2023/12/06 07:22:51;;;;;;;45.85;34.38;;;;;;;;;;5061415;28;20035;-78
2023/12/06 07:25:17;;;;;;;41.88;31.73;;;;;;;;;;5061312;28;20028;-78
2023/12/06 07:27:45;;;;;;;35.90;28.92;;;;;;;;;;5061475;28;20024;-79
2023/12/06 07:30:12;;;;;;;34.35;27.60;;;;;;;;;;5061664;28;20020;-78
2023/12/06 07:32:37;;;;;;;33.03;25.38;;;;;;;;;;5062370;28;20062;-79
2023/12/06 07:35:03;;;;;;;37.63;29.25;;;;;;;;;;5060708;28;20051;-79
2023/12/06 07:37:29;;;;;;;38.42;28.88;;;;;;;;;;5061169;28;20112;-79
2023/12/06 07:39:54;;;;;;;43.45;32.88;;;;;;;;;;5061702;28;20391;-77
2023/12/06 07:42:20;;;;;;;39.20;32.13;;;;;;;;;;5059528;28;20024;-78
2023/12/06 07:44:46;;;;;;;59.97;44.97;;;;;;;;;;5060565;28;20040;-79
2023/12/06 07:47:11;;;;;;;41.28;32.60;;;;;;;;;;5061618;28;20450;-77
2023/12/06 07:49:36;;;;;;;35.63;27.98;;;;;;;;;;5060844;28;20082;-77
2023/12/06 07:52:02;;;;;;;42.88;34.00;;;;;;;;;;5059935;28;20038;-76
2023/12/06 07:54:27;;;;;;;50.42;39.45;;;;;;;;;;5053656;28;20036;-76
2023/12/06 07:56:52;;;;;;;41.58;34.08;;;;;;;;;;5056995;28;20095;-76
2023/12/06 07:59:18;;;;;;;49.22;39.50;;;;;;;;;;5061010;28;20021;-75
2023/12/06 08:01:43;;;;;;;74.85;58.40;;;;;;;;;;5060578;28;20024;-76
2023/12/06 08:04:08;;;;;;;46.90;37.00;;;;;;;;;;5061490;28;20020;-76
2023/12/06 08:06:34;;;;;;;49.05;38.75;;;;;;;;;;5060506;28;20045;-76
2023/12/06 08:09:00;;;;;;;48.40;40.25;;;;;;;;;;5060711;28;20412;-76
2023/12/06 08:11:25;;;;;;;56.88;45.67;;;;;;;;;;5061386;28;20020;-76
2023/12/06 08:13:51;;;;;;;44.75;37.25;;;;;;;;;;5060902;28;20458;-75
2023/12/06 08:16:16;;;;;;;75.13;66.90;;;;;;;;;;5059617;28;20112;-74
2023/12/06 08:18:42;;;;;;;68.38;57.67;;;;;;;;;;5059589;28;20137;-73
2023/12/06 08:21:08;;;;;;;35.08;28.42;;;;;;;;;;5060675;28;20028;-73
2023/12/06 08:23:36;;;;;;;47.75;37.47;;;;;;;;;;5047034;28;20024;-74
2023/12/06 08:26:02;;;;;;;60.13;48.17;;;;;;;;;;5047039;28;20024;-75
2023/12/06 08:28:27;;;;;;;122.85;91.57;;;;;;;;;;5046358;28;20615;-72
2023/12/06 08:30:52;;;;;;;58.38;45.08;;;;;;;;;;5045492;28;21178;-74
2023/12/06 08:33:19;;;;;;;63.78;52.10;;;;;;;;;;5045528;28;20124;-72
2023/12/06 08:35:44;;;;;;;76.47;60.60;;;;;;;;;;5047088;28;20024;-76
2023/12/06 08:38:10;;;;;;;77.70;62.00;;;;;;;;;;5058342;28;20324;-73
2023/12/06 08:40:35;;;;;;;83.15;69.93;;;;;;;;;;5059690;28;20060;-72
2023/12/06 08:43:00;;;;;;;75.88;64.13;;;;;;;;;;5061054;28;20343;-75
2023/12/06 08:45:26;;;;;;;91.72;81.82;;;;;;;;;;5060546;28;20432;-74
2023/12/06 08:47:51;;;;;;;118.28;105.15;;;;;;;;;;5050715;28;20059;-73
2023/12/06 08:50:17;;;;;;;88.18;69.78;;;;;;;;;;5045536;28;20047;-71
2023/12/06 08:52:44;;;;;;;246.07;176.38;;;;;;;;;;5044920;28;20059;-76
2023/12/06 08:55:10;;;;;;;235.20;134.02;;;;;;;;;;5052400;28;20048;-72
2023/12/06 08:57:35;;;;;;;265.05;171.27;;;;;;;;;;5063434;28;20482;-71
2023/12/06 09:00:00;;;;;;;303.02;189.80;;;;;;;;;;5062799;28;20465;-73
2023/12/06 09:02:26;;;;;;;211.35;137.63;;;;;;;;;;5063726;28;20112;-72
2023/12/06 09:04:53;;;;;;;96.50;66.55;;;;;;;;;;5065126;28;20029;-73
2023/12/06 09:07:18;;;;;;;76.50;56.65;;;;;;;;;;5063447;28;20048;-72
2023/12/06 09:09:46;;;;;;;103.57;71.15;;;;;;;;;;5063414;28;20541;-73
2023/12/06 09:12:12;;;;;;;73.32;52.95;;;;;;;;;;5063355;28;20389;-73
2023/12/06 09:14:37;;;;;;;168.80;126.35;;;;;;;;;;5063184;28;20040;-74
2023/12/06 09:17:02;;;;;;;151.25;111.00;;;;;;;;;;5063116;28;20024;-72
2023/12/06 09:19:28;;;;;;;88.70;74.38;;;;;;;;;;5053537;28;20085;-72
2023/12/06 09:21:53;;;;;;;70.40;59.03;;;;;;;;;;5032741;28;20641;-72
2023/12/06 09:24:18;;;;;;;72.40;61.92;;;;;;;;;;5055521;28;20035;-75
2023/12/06 09:26:44;;;;;;;118.28;86.75;;;;;;;;;;5048411;28;20024;-73
2023/12/06 09:29:09;;;;;;;127.18;91.60;;;;;;;;;;5049579;28;20032;-76
2023/12/06 09:31:35;;;;;;;215.90;151.25;;;;;;;;;;5049834;28;20063;-74
2023/12/06 09:34:02;;;;;;;192.27;142.52;;;;;;;;;;5047123;28;20048;-73
2023/12/06 09:36:28;;;;;;;172.35;128.18;;;;;;;;;;5059356;28;20482;-76
2023/12/06 09:38:56;;;;;;;118.32;91.95;;;;;;;;;;5049176;28;20028;-76
2023/12/06 09:41:25;;;;;;;74.70;59.03;;;;;;;;;;5049340;28;20028;-76
2023/12/06 09:43:51;;;;;;;80.13;64.07;;;;;;;;;;5048718;28;20734;-74
2023/12/06 09:46:16;;;;;;;73.30;58.75;;;;;;;;;;5048536;28;20713;-74
2023/12/06 09:48:42;;;;;;;156.68;122.80;;;;;;;;;;5047378;28;20029;-75
2023/12/06 09:51:07;;;;;;;137.32;116.10;;;;;;;;;;5047424;28;20028;-76
2023/12/06 09:53:32;;;;;;;120.25;94.43;;;;;;;;;;5046468;28;20043;-74
2023/12/06 09:55:58;;;;;;;82.07;64.78;;;;;;;;;;5047761;28;20431;-74
2023/12/06 09:58:23;;;;;;;105.38;85.10;;;;;;;;;;5046506;28;20035;-75
2023/12/06 10:00:48;;;;;;;218.45;171.48;;;;;;;;;;5052725;28;20033;-74
2023/12/06 10:03:15;;;;;;;185.43;143.77;;;;;;;;;;5047579;28;20020;-75
2023/12/06 10:05:41;;;;;;;222.13;180.85;;;;;;;;;;5048268;28;20167;-74
2023/12/06 10:08:07;;;;;;;235.13;188.50;;;;;;;;;;5056428;28;20167;-77
2023/12/06 10:10:32;;;;;;;332.15;221.48;;;;;;;;;;5059369;28;20090;-74
2023/12/06 10:12:57;;;;;;;187.52;137.38;;;;;;;;;;5054345;28;20060;-75
2023/12/06 10:15:23;;;;;;;115.68;86.03;;;;;;;;;;5063222;28;20406;-76
2023/12/06 10:17:49;;;;;;;131.20;99.60;;;;;;;;;;5062959;28;20032;-76
2023/12/06 10:20:14;;;;;;;76.30;64.25;;;;;;;;;;5061392;28;20481;-78
2023/12/06 10:22:41;;;;;;;104.13;88.05;;;;;;;;;;5062663;28;20064;-76
2023/12/06 10:25:07;;;;;;;82.38;66.10;;;;;;;;;;5062985;28;20028;-76
2023/12/06 10:27:34;;;;;;;90.75;74.13;;;;;;;;;;5062022;28;20543;-74
2023/12/06 10:30:00;;;;;;;202.40;146.23;;;;;;;;;;5062699;28;20436;-75
2023/12/06 10:32:25;;;;;;;200.43;147.60;;;;;;;;;;5061315;28;20035;-74
2023/12/06 10:34:51;;;;;;;80.30;67.35;;;;;;;;;;5063006;28;20028;-74
2023/12/06 10:37:20;;;;;;;96.25;76.35;;;;;;;;;;5061959;28;20081;-75
2023/12/06 10:39:48;;;;;;;73.80;57.00;;;;;;;;;;5063081;28;20025;-73
2023/12/06 10:42:17;;;;;;;75.88;62.40;;;;;;;;;;5059203;28;20022;-73
2023/12/06 10:44:42;;;;;;;82.18;72.25;;;;;;;;;;5045887;28;20028;-73
2023/12/06 10:47:08;;;;;;;62.92;53.67;;;;;;;;;;5055844;28;20467;-76
2023/12/06 10:49:36;;;;;;;62.75;55.70;;;;;;;;;;5053127;28;20028;-75
2023/12/06 10:52:02;;;;;;;85.05;74.63;;;;;;;;;;5063462;28;20495;-73
2023/12/06 10:54:28;;;;;;;116.30;104.80;;;;;;;;;;5061960;28;20032;-74
2023/12/06 10:56:54;;;;;;;87.00;77.70;;;;;;;;;;5062843;28;20088;-73
2023/12/06 10:59:20;;;;;;;292.58;203.88;;;;;;;;;;5050447;28;20031;-75
2023/12/06 11:01:46;;;;;;;117.43;94.13;;;;;;;;;;5060930;28;20059;-74
2023/12/06 11:04:12;;;;;;;105.60;84.15;;;;;;;;;;5062012;28;20394;-76
2023/12/06 11:06:40;;;;;;;126.68;100.53;;;;;;;;;;5053888;28;20037;-75
2023/12/06 11:09:08;;;;;;;79.20;67.35;;;;;;;;;;5055353;28;20033;-74
2023/12/06 11:11:54;;;;;;;93.72;80.05;;;;;;;;;;5060365;28;20024;-73
2023/12/06 11:14:32;;;;;;;66.72;57.42;;;;;;;;;;5054711;28;20028;-73
2023/12/06 11:17:12;;;;;;;61.03;47.45;;;;;;;;;;5053455;28;20099;-72
2023/12/06 11:19:37;;;;;;;136.27;121.32;;;;;;;;;;5059697;28;20032;-74
2023/12/06 11:22:03;;;;;;;190.35;165.63;;;;;;;;;;5061502;28;20118;-74
2023/12/06 11:24:29;;;;;;;344.55;291.00;;;;;;;;;;5050122;28;20428;-71
2023/12/06 11:26:55;;;;;;;188.80;156.55;;;;;;;;;;5061848;28;20581;-72
2023/12/06 11:29:21;;;;;;;161.70;138.50;;;;;;;;;;5061749;28;20089;-74
2023/12/06 11:31:51;;;;;;;94.15;77.57;;;;;;;;;;5061262;28;20017;-74
2023/12/06 11:34:16;;;;;;;73.53;62.33;;;;;;;;;;5060980;28;20012;-75
2023/12/06 11:36:42;;;;;;;92.75;67.57;;;;;;;;;;5060752;28;20089;-73
2023/12/06 11:39:16;;;;;;;172.15;146.10;;;;;;;;;;5061207;28;20033;-74
2023/12/06 11:41:45;;;;;;;187.68;134.07;;;;;;;;;;5061708;28;20028;-74
2023/12/06 11:44:15;;;;;;;118.18;90.05;;;;;;;;;;5060166;28;20351;-73
2023/12/06 11:46:47;;;;;;;111.78;84.55;;;;;;;;;;5060463;28;20021;-75
2023/12/06 11:49:13;;;;;;;111.82;88.65;;;;;;;;;;5059336;28;20455;-72
2023/12/06 11:51:40;;;;;;;124.78;100.35;;;;;;;;;;5059712;28;20028;-78
2023/12/06 11:54:05;;;;;;;173.55;120.75;;;;;;;;;;5061381;28;20012;-71
2023/12/06 11:56:30;;;;;;;179.55;130.07;;;;;;;;;;5061528;28;20338;-72
2023/12/06 11:58:57;;;;;;;136.45;104.72;;;;;;;;;;5061542;28;20029;-72
2023/12/06 12:01:22;;;;;;;186.68;166.40;;;;;;;;;;5062113;28;20033;-72
2023/12/06 12:03:48;;;;;;;84.40;70.57;;;;;;;;;;5061581;28;20423;-72
2023/12/06 12:06:15;;;;;;;145.18;123.10;;;;;;;;;;5060944;28;20170;-73
2023/12/06 12:08:41;;;;;;;179.95;134.00;;;;;;;;;;5061046;28;20028;-74
2023/12/06 12:11:07;;;;;;;146.85;109.97;;;;;;;;;;5060527;28;20085;-72
2023/12/06 12:13:35;;;;;;;78.40;67.07;;;;;;;;;;5061401;28;20124;-76
2023/12/06 12:16:04;;;;;;;60.05;47.50;;;;;;;;;;5060831;28;20085;-75
2023/12/06 12:18:29;;;;;;;71.18;58.20;;;;;;;;;;5047741;28;20039;-72
2023/12/06 12:20:55;;;;;;;70.95;57.58;;;;;;;;;;5060142;28;20029;-76
2023/12/06 12:23:21;;;;;;;101.22;80.63;;;;;;;;;;5060805;28;20043;-73
2023/12/06 12:25:49;;;;;;;213.77;145.65;;;;;;;;;;5060994;28;20058;-73
2023/12/06 12:28:17;;;;;;;257.10;175.40;;;;;;;;;;5061461;28;20024;-71
2023/12/06 12:30:43;;;;;;;462.58;315.45;;;;;;;;;;5064355;28;20017;-72
2023/12/06 12:33:09;;;;;;;436.02;302.30;;;;;;;;;;5064909;28;20032;-72
2023/12/06 12:35:35;;;;;;;377.70;264.75;;;;;;;;;;5065807;28;20106;-73
2023/12/06 12:38:00;;;;;;;338.83;252.43;;;;;;;;;;5063717;28;20070;-73
2023/12/06 12:40:25;;;;;;;216.18;188.23;;;;;;;;;;5065706;28;20036;-73
2023/12/06 12:42:51;;;;;;;355.35;301.65;;;;;;;;;;5065418;28;20021;-72
2023/12/06 12:45:20;;;;;;;346.63;273.88;;;;;;;;;;5065854;28;20112;-71
2023/12/06 12:47:45;;;;;;;296.23;244.07;;;;;;;;;;5064174;28;20074;-72
2023/12/06 12:50:16;;;;;;;219.15;185.20;;;;;;;;;;5065349;28;20064;-72
2023/12/06 12:52:41;;;;;;;205.52;177.77;;;;;;;;;;5064907;28;20029;-72
2023/12/06 12:55:07;;;;;;;151.00;131.57;;;;;;;;;;5064842;28;20032;-72
2023/12/06 12:57:34;;;;;;;115.35;100.03;;;;;;;;;;5065396;28;20040;-71
2023/12/06 12:59:59;;;;;;;111.20;95.10;;;;;;;;;;5064995;28;20016;-72
2023/12/06 13:02:24;;;;;;;95.70;83.25;;;;;;;;;;5064734;28;20039;-72
2023/12/06 13:04:50;;;;;;;92.13;80.43;;;;;;;;;;5064525;28;20039;-74
2023/12/06 13:07:15;;;;;;;125.50;111.95;;;;;;;;;;5064929;28;20044;-72
2023/12/06 13:09:41;;;;;;;113.07;95.88;;;;;;;;;;5064737;28;20457;-73
2023/12/06 13:12:07;;;;;;;131.65;108.32;;;;;;;;;;5063578;28;20037;-71
2023/12/06 13:14:32;;;;;;;177.45;151.05;;;;;;;;;;5065524;28;20078;-72
2023/12/06 13:16:59;;;;;;;121.05;107.60;;;;;;;;;;5064290;28;20645;-75
2023/12/06 13:19:24;;;;;;;109.78;95.35;;;;;;;;;;5064734;28;20118;-71
2023/12/06 13:21:50;;;;;;;106.75;95.15;;;;;;;;;;5064069;28;20082;-73
2023/12/06 13:24:15;;;;;;;92.45;81.40;;;;;;;;;;5063381;28;20033;-74
2023/12/06 13:26:41;;;;;;;59.60;52.75;;;;;;;;;;5064376;28;20024;-73
2023/12/06 13:29:06;;;;;;;51.28;45.22;;;;;;;;;;5064136;28;20058;-72
2023/12/06 13:31:31;;;;;;;43.47;38.80;;;;;;;;;;5065014;28;20016;-73
2023/12/06 13:33:57;;;;;;;41.33;36.88;;;;;;;;;;5064745;28;20420;-75
2023/12/06 13:36:22;;;;;;;39.35;34.47;;;;;;;;;;5063934;28;20028;-73
2023/12/06 13:38:47;;;;;;;104.32;81.85;;;;;;;;;;5064646;28;20082;-73
2023/12/06 13:41:13;;;;;;;174.95;138.50;;;;;;;;;;5062334;28;20017;-74
2023/12/06 13:43:38;;;;;;;164.38;134.73;;;;;;;;;;5063084;28;20052;-74
2023/12/06 13:46:03;;;;;;;177.10;145.15;;;;;;;;;;5057281;28;20009;-74
2023/12/06 13:48:29;;;;;;;176.38;149.18;;;;;;;;;;5050367;28;20979;-73
2023/12/06 13:50:54;;;;;;;143.88;120.50;;;;;;;;;;5059036;28;20032;-73
2023/12/06 13:53:20;;;;;;;128.25;111.60;;;;;;;;;;5063585;28;20183;-73
2023/12/06 13:55:45;;;;;;;165.27;139.10;;;;;;;;;;5062511;28;20805;-72
2023/12/06 13:58:11;;;;;;;130.07;115.80;;;;;;;;;;5063799;28;20107;-75
2023/12/06 14:00:36;;;;;;;146.80;130.65;;;;;;;;;;5062980;28;21013;-73
2023/12/06 14:03:01;;;;;;;102.57;90.68;;;;;;;;;;5063353;28;20366;-72